Time,TemperatureF,DewpointF,PressureIn,WindDirection,WindDirectionDegrees,WindSpeedMPH,WindSpeedGustMPH,Humidity,HourlyPrecipIn,Conditions,Clouds,dailyrainin,SoftwareType,DateUTC
2013-05-29 00:00:00,57.9,56.8,30.14,SSW,207,0.0,0.0,96,0.00,,,0.00,Wunderground v.1.15,2013-05-29 04:00:00,
2013-05-29 00:05:00,57.9,56.8,30.14,SSW,207,0.0,0.0,96,0.00,,,0.00,Wunderground v.1.15,2013-05-29 04:05:00,
2013-05-29 00:10:00,58.0,56.9,30.14,SSW,207,0.0,0.0,96,0.00,,,0.00,Wunderground v.1.15,2013-05-29 04:10:00,
2013-05-29 00:20:00,58.0,56.9,30.13,SSW,207,0.0,0.0,96,0.00,,,0.00,Wunderground v.1.15,2013-05-29 04:20:00,
2013-05-29 00:30:00,58.1,57.0,30.13,SW,220,0.0,0.0,96,0.00,,,0.00,Wunderground v.1.15,2013-05-29 04:30:00,
2013-05-29 00:40:00,58.1,57.0,30.13,SSE,155,0.0,0.0,96,0.00,,,0.00,Wunderground v.1.15,2013-05-29 04:40:00,
2013-05-29 00:50:00,58.1,57.0,30.13,SE,140,1.0,1.0,96,0.00,,,0.00,Wunderground v.1.15,2013-05-29 04:50:00,
2013-05-29 01:00:00,58.1,57.0,30.12,NNE,20,1.0,1.0,96,0.00,,,0.00,Wunderground v.1.15,2013-05-29 05:00:00,
2013-05-29 01:10:00,58.1,57.0,30.12,NNE,22,0.0,0.0,96,0.00,,,0.00,Wunderground v.1.15,2013-05-29 05:10:00,
2013-05-29 01:20:00,58.0,56.9,30.11,NNE,22,0.0,0.0,96,0.00,,,0.00,Wunderground v.1.15,2013-05-29 05:20:00,
2013-05-29 01:30:00,58.0,56.9,30.12,NNE,19,0.0,0.0,96,0.00,,,0.00,Wunderground v.1.15,2013-05-29 05:30:00,
2013-05-29 01:40:00,58.0,57.2,30.11,WNW,303,0.0,0.0,97,0.00,,,0.00,Wunderground v.1.15,2013-05-29 05:40:00,
2013-05-29 01:50:00,58.1,57.3,30.11,NNE,16,0.0,0.0,97,0.00,,,0.00,Wunderground v.1.15,2013-05-29 05:50:00,
2013-05-29 02:00:00,58.0,57.2,30.11,North,1,0.0,0.0,97,0.00,,,0.00,Wunderground v.1.15,2013-05-29 06:00:00,
2013-05-29 02:10:00,58.0,57.2,30.10,North,1,0.0,0.0,97,0.00,,,0.00,Wunderground v.1.15,2013-05-29 06:10:00,
2013-05-29 02:20:00,58.2,57.4,30.10,North,1,0.0,0.0,97,0.00,,,0.00,Wunderground v.1.15,2013-05-29 06:20:00,
2013-05-29 02:30:00,58.1,57.3,30.10,North,0,0.0,2.0,97,0.00,,,-99.99,WeatherLink 6.0.2,2013-05-29 06:30:00,
2013-05-29 02:40:00,58.0,56.9,30.09,NNW,335,0.0,0.0,96,0.00,,,0.00,Wunderground v.1.15,2013-05-29 06:40:00,
2013-05-29 02:50:00,58.1,57.3,30.08,NNE,13,2.0,2.0,97,0.00,,,0.00,Wunderground v.1.15,2013-05-29 06:50:00,
2013-05-29 03:00:00,58.0,57.2,30.08,NNE,13,0.0,0.0,97,0.00,,,0.00,Wunderground v.1.15,2013-05-29 07:00:00,
2013-05-29 03:10:00,58.0,57.2,30.08,NNE,13,1.0,1.0,97,0.00,,,0.00,Wunderground v.1.15,2013-05-29 07:10:00,
2013-05-29 03:20:00,58.0,56.9,30.08,NNE,13,0.0,0.0,96,0.00,,,0.00,Wunderground v.1.15,2013-05-29 07:20:00,
2013-05-29 03:30:00,58.1,57.3,30.08,NNE,13,0.0,0.0,97,0.00,,,0.00,Wunderground v.1.15,2013-05-29 07:30:00,
2013-05-29 03:40:00,58.1,57.3,30.08,NNE,13,1.0,3.0,97,0.00,,,0.00,Wunderground v.1.15,2013-05-29 07:40:00,
2013-05-29 03:50:00,58.0,56.9,30.08,WNW,285,1.0,1.0,96,0.00,,,0.00,Wunderground v.1.15,2013-05-29 07:50:00,
2013-05-29 04:00:00,58.0,57.2,30.07,NNE,22,0.0,3.0,97,0.00,,,-99.99,WeatherLink 6.0.2,2013-05-29 08:00:00,
2013-05-29 04:10:00,58.1,57.3,30.07,NNW,342,0.0,0.0,97,0.00,,,0.00,Wunderground v.1.15,2013-05-29 08:10:00,
2013-05-29 04:20:00,58.0,57.2,30.07,North,351,0.0,3.0,97,0.00,,,0.00,Wunderground v.1.15,2013-05-29 08:20:00,
2013-05-29 04:30:00,58.0,57.2,30.07,North,351,0.0,1.0,97,0.00,,,0.00,Wunderground v.1.15,2013-05-29 08:30:00,
2013-05-29 04:40:00,58.0,57.2,30.07,North,356,0.0,2.0,97,0.00,,,0.00,Wunderground v.1.15,2013-05-29 08:40:00,
2013-05-29 04:50:00,58.0,57.2,30.07,WNW,282,0.0,0.0,97,0.00,,,0.00,Wunderground v.1.15,2013-05-29 08:50:00,
2013-05-29 05:00:00,58.0,57.2,30.07,North,0,0.0,3.0,97,0.00,,,-99.99,WeatherLink 6.0.2,2013-05-29 09:00:00,
2013-05-29 05:10:00,58.0,57.2,30.07,WNW,300,0.0,0.0,97,0.00,,,0.00,Wunderground v.1.15,2013-05-29 09:10:00,
2013-05-29 05:20:00,58.0,57.2,30.07,WNW,296,0.0,0.0,97,0.00,,,0.00,Wunderground v.1.15,2013-05-29 09:20:00,
2013-05-29 05:30:00,57.9,57.1,30.08,West,281,0.0,0.0,97,0.00,,,0.00,Wunderground v.1.15,2013-05-29 09:30:00,
2013-05-29 05:40:00,57.8,57.0,30.07,WNW,290,0.0,1.0,97,0.00,,,0.00,Wunderground v.1.15,2013-05-29 09:40:00,
2013-05-29 05:50:00,57.8,57.0,30.07,WNW,303,1.0,1.0,97,0.00,,,0.00,Wunderground v.1.15,2013-05-29 09:50:00,
2013-05-29 06:00:00,57.8,57.0,30.08,WNW,292,0.0,2.0,97,0.00,,,-99.99,WeatherLink 6.0.2,2013-05-29 10:00:00,
2013-05-29 06:10:00,57.9,57.1,30.08,WNW,302,0.0,0.0,97,0.00,,,0.00,Wunderground v.1.15,2013-05-29 10:10:00,
2013-05-29 06:20:00,57.8,57.0,30.08,WNW,282,0.0,0.0,97,0.00,,,0.00,Wunderground v.1.15,2013-05-29 10:20:00,
2013-05-29 06:30:00,57.9,57.1,30.08,WNW,283,0.0,0.0,97,0.00,,,0.00,Wunderground v.1.15,2013-05-29 10:30:00,
2013-05-29 06:40:00,57.9,57.1,30.08,WNW,283,0.0,0.0,97,0.00,,,0.00,Wunderground v.1.15,2013-05-29 10:40:00,
2013-05-29 06:50:00,57.9,57.1,30.09,WNW,283,0.0,0.0,97,0.00,,,0.00,Wunderground v.1.15,2013-05-29 10:50:00,
2013-05-29 07:00:00,57.9,57.1,30.08,WNW,283,0.0,0.0,97,0.00,,,0.00,Wunderground v.1.15,2013-05-29 11:00:00,
2013-05-29 07:10:00,58.0,57.2,30.09,WNW,283,0.0,0.0,97,0.00,,,0.00,Wunderground v.1.15,2013-05-29 11:10:00,
2013-05-29 07:20:00,58.1,57.3,30.09,WNW,288,1.0,1.0,97,0.00,,,0.00,Wunderground v.1.15,2013-05-29 11:20:00,
2013-05-29 07:30:00,58.2,57.4,30.09,WNW,292,0.0,2.0,97,0.00,,,-99.99,WeatherLink 6.0.2,2013-05-29 11:30:00,
2013-05-29 07:40:00,58.3,57.5,30.09,WNW,290,1.0,1.0,97,0.00,,,0.00,Wunderground v.1.15,2013-05-29 11:40:00,
2013-05-29 07:50:00,58.5,57.7,30.09,WNW,294,0.0,0.0,97,0.00,,,0.00,Wunderground v.1.15,2013-05-29 11:50:00,
2013-05-29 08:00:00,58.5,57.7,30.10,WNW,294,0.0,0.0,97,0.00,,,0.00,Wunderground v.1.15,2013-05-29 12:00:00,
2013-05-29 08:10:00,58.6,57.8,30.08,WNW,295,0.0,0.0,97,0.00,,,0.00,Wunderground v.1.15,2013-05-29 12:10:00,
2013-05-29 08:20:00,58.8,58.0,30.09,WNW,297,0.0,2.0,97,0.00,,,0.00,Wunderground v.1.15,2013-05-29 12:20:00,
2013-05-29 08:30:00,59.0,58.2,30.09,NW,305,0.0,0.0,97,0.00,,,0.00,Wunderground v.1.15,2013-05-29 12:30:00,
2013-05-29 08:40:00,59.2,58.3,30.10,NW,305,0.0,0.0,97,0.00,,,0.00,Wunderground v.1.15,2013-05-29 12:40:00,
2013-05-29 08:50:00,59.4,58.5,30.09,West,272,0.0,1.0,97,0.00,,,0.00,Wunderground v.1.15,2013-05-29 12:50:00,
2013-05-29 09:00:00,59.6,58.5,30.09,NW,315,0.0,2.0,96,0.00,,,-99.99,WeatherLink 6.0.2,2013-05-29 13:00:00,
2013-05-29 09:10:00,60.0,58.9,30.09,WSW,250,0.0,3.0,96,0.00,,,0.00,Wunderground v.1.15,2013-05-29 13:10:00,
2013-05-29 09:20:00,60.8,59.7,30.09,WSW,240,1.0,3.0,96,0.00,,,0.00,Wunderground v.1.15,2013-05-29 13:20:00,
2013-05-29 09:30:00,61.4,60.0,30.09,SW,223,1.0,1.0,95,0.00,,,0.00,Wunderground v.1.15,2013-05-29 13:30:00,
2013-05-29 09:40:00,62.1,60.7,30.09,SW,227,1.0,1.0,95,0.00,,,0.00,Wunderground v.1.15,2013-05-29 13:40:00,
2013-05-29 09:50:00,62.6,60.5,30.09,SSW,202,1.0,2.0,93,0.00,,,0.00,Wunderground v.1.15,2013-05-29 13:50:00,
2013-05-29 10:00:00,63.2,60.8,30.09,SSW,200,1.0,1.0,92,0.00,,,0.01,Wunderground v.1.15,2013-05-29 14:00:00,
2013-05-29 10:10:00,63.8,61.1,30.08,SSW,196,1.0,1.0,91,0.00,,,0.01,Wunderground v.1.15,2013-05-29 14:10:00,
2013-05-29 10:20:00,64.6,62.2,30.08,SW,214,1.0,1.0,92,0.00,,,0.01,Wunderground v.1.15,2013-05-29 14:20:00,
2013-05-29 10:30:00,65.2,62.5,30.08,SW,225,1.0,5.0,91,0.01,,,-99.99,WeatherLink 6.0.2,2013-05-29 14:30:00,
2013-05-29 10:40:00,65.8,62.5,30.09,South,189,2.0,4.0,89,0.00,,,0.01,Wunderground v.1.15,2013-05-29 14:40:00,
2013-05-29 10:50:00,66.3,62.6,30.08,SW,224,2.0,2.0,88,0.00,,,0.01,Wunderground v.1.15,2013-05-29 14:50:00,
2013-05-29 11:00:00,66.9,62.9,30.08,SW,231,3.0,3.0,87,0.00,,,0.01,Wunderground v.1.15,2013-05-29 15:00:00,
2013-05-29 11:10:00,67.2,62.5,30.08,SW,226,3.0,5.0,85,0.00,,,0.01,Wunderground v.1.15,2013-05-29 15:10:00,
2013-05-29 11:20:00,66.5,62.8,30.08,SSW,208,3.0,3.0,88,0.00,,,0.01,Wunderground v.1.15,2013-05-29 15:20:00,
2013-05-29 11:30:00,67.0,62.7,30.08,SW,221,3.0,3.0,86,0.00,,,0.01,Wunderground v.1.15,2013-05-29 15:30:00,
2013-05-29 11:40:00,67.6,62.9,30.08,South,182,2.0,3.0,85,0.00,,,0.01,Wunderground v.1.15,2013-05-29 15:40:00,
2013-05-29 11:50:00,67.8,62.8,30.08,West,263,4.0,4.0,84,0.00,,,0.01,Wunderground v.1.15,2013-05-29 15:50:00,
2013-05-29 12:00:00,68.2,63.5,30.08,SW,229,2.0,2.0,85,0.00,,,0.01,Wunderground v.1.15,2013-05-29 16:00:00,
2013-05-29 12:10:00,69.5,64.1,30.08,WSW,253,3.0,4.0,83,0.00,,,0.01,Wunderground v.1.15,2013-05-29 16:10:00,
2013-05-29 12:20:00,69.9,64.5,30.08,SW,236,3.0,5.0,83,0.00,,,0.01,Wunderground v.1.15,2013-05-29 16:20:00,
2013-05-29 12:30:00,70.7,64.6,30.07,SW,225,3.0,10.0,81,0.00,,,-99.99,WeatherLink 6.0.2,2013-05-29 16:30:00,
2013-05-29 12:40:00,71.7,65.6,30.07,SE,132,3.0,4.0,81,0.00,,,0.01,Wunderground v.1.15,2013-05-29 16:40:00,
2013-05-29 12:50:00,73.0,66.1,30.07,West,279,2.0,2.0,79,0.00,,,0.01,Wunderground v.1.15,2013-05-29 16:50:00,
2013-05-29 13:00:00,73.9,66.6,30.06,SW,234,3.0,7.0,78,0.00,,,0.01,Wunderground v.1.15,2013-05-29 17:00:00,
2013-05-29 13:10:00,74.5,66.8,30.06,WSW,246,4.0,4.0,77,0.00,,,0.01,Wunderground v.1.15,2013-05-29 17:10:00,
2013-05-29 13:20:00,75.7,67.6,30.06,South,188,4.0,7.0,76,0.00,,,0.01,Wunderground v.1.15,2013-05-29 17:20:00,
2013-05-29 13:30:00,76.9,67.6,30.05,SW,225,4.0,8.0,73,0.00,,,-99.99,WeatherLink 6.0.2,2013-05-29 17:30:00,
2013-05-29 13:40:00,77.9,68.1,30.05,SW,227,4.0,7.0,72,0.00,,,0.01,Wunderground v.1.15,2013-05-29 17:40:00,
2013-05-29 13:50:00,78.7,67.7,30.05,SSW,204,4.0,4.0,69,0.00,,,0.01,Wunderground v.1.15,2013-05-29 17:50:00,
2013-05-29 14:00:00,79.3,68.7,30.05,SW,230,4.0,4.0,70,0.00,,,0.01,Wunderground v.1.15,2013-05-29 18:00:00,
2013-05-29 14:10:00,79.9,68.4,30.04,SW,226,4.0,4.0,68,0.00,,,0.01,Wunderground v.1.15,2013-05-29 18:10:00,
2013-05-29 14:20:00,80.5,68.1,30.04,SSW,213,5.0,5.0,66,0.00,,,0.01,Wunderground v.1.15,2013-05-29 18:20:00,
2013-05-29 14:30:00,81.1,68.7,30.04,SW,220,5.0,5.0,66,0.00,,,0.01,Wunderground v.1.15,2013-05-29 18:30:00,
2013-05-29 14:40:00,81.5,68.1,30.03,WSW,249,5.0,5.0,64,0.00,,,0.01,Wunderground v.1.15,2013-05-29 18:40:00,
2013-05-29 14:50:00,81.3,67.5,30.03,SSW,197,5.0,5.0,63,0.00,,,0.01,Wunderground v.1.15,2013-05-29 18:50:00,
2013-05-29 15:00:00,81.8,67.5,30.03,SW,229,4.0,5.0,62,0.00,,,0.01,Wunderground v.1.15,2013-05-29 19:00:00,
2013-05-29 15:10:00,81.6,67.3,30.03,SW,214,5.0,5.0,62,0.00,,,0.01,Wunderground v.1.15,2013-05-29 19:10:00,
2013-05-29 15:20:00,82.0,67.2,30.03,SW,214,4.0,4.0,61,0.00,,,0.01,Wunderground v.1.15,2013-05-29 19:20:00,
2013-05-29 15:30:00,82.5,66.2,30.03,WSW,238,6.0,6.0,58,0.00,,,0.01,Wunderground v.1.15,2013-05-29 19:30:00,
2013-05-29 15:40:00,82.2,67.4,30.03,South,176,5.0,5.0,61,0.00,,,0.01,Wunderground v.1.15,2013-05-29 19:40:00,
2013-05-29 15:50:00,82.4,67.1,30.02,SSW,199,5.0,5.0,60,0.00,,,0.01,Wunderground v.1.15,2013-05-29 19:50:00,
2013-05-29 16:00:00,83.1,66.8,30.02,SW,219,5.0,8.0,58,0.00,,,0.01,Wunderground v.1.15,2013-05-29 20:00:00,
2013-05-29 16:10:00,83.0,67.2,30.02,South,174,4.0,4.0,59,0.00,,,0.01,Wunderground v.1.15,2013-05-29 20:10:00,
2013-05-29 16:20:00,-999.9,-99.9,30.01,North,32767,-999.0,0.0,255,-99.99,,,0.01,Wunderground v.1.15,2013-05-29 20:20:00,
2013-05-29 16:30:00,-999.0,-99.9,30.01,SW,225,4.0,8.0,-999,0.00,,,-99.99,WeatherLink 6.0.2,2013-05-29 20:30:00,
2013-05-29 16:40:00,-999.9,-99.9,30.01,North,32767,-999.0,0.0,255,-99.99,,,0.01,Wunderground v.1.15,2013-05-29 20:40:00,
2013-05-29 16:50:00,-999.9,-99.9,30.01,North,32767,-999.0,0.0,255,-99.99,,,0.01,Wunderground v.1.15,2013-05-29 20:50:00,
2013-05-29 17:00:00,-999.9,-99.9,30.01,North,32767,-999.0,0.0,255,-99.99,,,0.01,Wunderground v.1.15,2013-05-29 21:00:00,
2013-05-29 17:10:00,-999.9,-99.9,30.01,North,32767,-999.0,0.0,255,-99.99,,,0.01,Wunderground v.1.15,2013-05-29 21:10:00,
2013-05-29 17:25:00,-999.9,-99.9,30.00,North,32767,-999.0,0.0,255,-99.99,,,0.01,Wunderground v.1.15,2013-05-29 21:25:00,
2013-05-29 17:30:00,-999.0,-99.9,30.00,North,-999,0.0,0.0,-999,0.00,,,-99.99,WeatherLink 6.0.2,2013-05-29 21:30:00,
2013-05-29 17:40:00,-999.9,-99.9,30.00,North,32767,-999.0,0.0,255,-99.99,,,0.01,Wunderground v.1.15,2013-05-29 21:40:00,
2013-05-29 17:50:00,-999.9,-99.9,30.00,North,32767,-999.0,0.0,255,-99.99,,,0.01,Wunderground v.1.15,2013-05-29 21:50:00,
2013-05-29 18:00:00,-999.0,-99.9,30.00,North,-999,0.0,0.0,-999,0.00,,,-99.99,WeatherLink 6.0.2,2013-05-29 22:00:00,
2013-05-29 18:10:00,-999.9,-99.9,29.99,North,32767,-999.0,0.0,255,-99.99,,,0.01,Wunderground v.1.15,2013-05-29 22:10:00,
2013-05-29 18:20:00,-999.9,-99.9,29.99,North,32767,-999.0,0.0,255,-99.99,,,0.01,Wunderground v.1.15,2013-05-29 22:20:00,
2013-05-29 18:30:00,-999.9,-99.9,29.99,North,32767,-999.0,0.0,255,-99.99,,,0.01,Wunderground v.1.15,2013-05-29 22:30:00,
2013-05-29 18:40:00,84.6,69.2,29.99,SSW,204,1.0,1.0,60,0.00,,,0.01,Wunderground v.1.15,2013-05-29 22:40:00,
2013-05-29 18:50:00,84.7,70.2,29.99,SE,137,1.0,5.0,62,0.00,,,0.01,Wunderground v.1.15,2013-05-29 22:50:00,
2013-05-29 19:00:00,84.1,70.1,29.99,WSW,248,2.0,2.0,63,0.00,,,0.01,Wunderground v.1.15,2013-05-29 23:00:00,
2013-05-29 19:10:00,83.1,68.7,29.99,SW,224,2.0,2.0,62,0.00,,,0.01,Wunderground v.1.15,2013-05-29 23:10:00,
2013-05-29 19:20:00,81.7,69.7,29.99,SW,230,1.0,2.0,67,0.00,,,0.01,Wunderground v.1.15,2013-05-29 23:20:00,
2013-05-29 19:30:00,80.9,69.8,29.99,SW,231,0.0,0.0,69,0.00,,,0.01,Wunderground v.1.15,2013-05-29 23:30:00,
2013-05-29 19:40:00,80.5,70.2,29.99,SW,234,0.0,0.0,71,0.00,,,0.01,Wunderground v.1.15,2013-05-29 23:40:00,
2013-05-29 19:50:00,79.4,69.6,29.99,WSW,242,1.0,1.0,72,0.00,,,0.01,Wunderground v.1.15,2013-05-29 23:50:00,
2013-05-29 20:00:00,78.7,70.1,29.99,WSW,242,0.0,0.0,75,0.00,,,0.01,Wunderground v.1.15,2013-05-30 00:00:00,
2013-05-29 20:10:00,77.6,69.8,29.99,WSW,242,1.0,1.0,77,0.00,,,0.01,Wunderground v.1.15,2013-05-30 00:10:00,
2013-05-29 20:20:00,76.7,69.3,30.00,WSW,242,0.0,0.0,78,0.00,,,0.01,Wunderground v.1.15,2013-05-30 00:20:00,
2013-05-29 20:30:00,75.9,69.3,29.99,WSW,242,0.0,0.0,80,0.00,,,0.01,Wunderground v.1.15,2013-05-30 00:30:00,
2013-05-29 20:40:00,75.1,69.2,29.99,WSW,241,0.0,0.0,82,0.00,,,0.01,Wunderground v.1.15,2013-05-30 00:40:00,
2013-05-29 20:50:00,74.2,68.3,30.00,WSW,242,0.0,0.0,82,0.00,,,0.01,Wunderground v.1.15,2013-05-30 00:50:00,
2013-05-29 21:00:00,73.7,68.6,29.99,WSW,242,0.0,2.0,84,0.00,,,0.01,Wunderground v.1.15,2013-05-30 01:00:00,
2013-05-29 21:10:00,72.9,68.1,29.99,WSW,242,0.0,0.0,85,0.00,,,0.01,Wunderground v.1.15,2013-05-30 01:10:00,
2013-05-29 21:20:00,72.4,68.0,30.00,WSW,242,0.0,0.0,86,0.00,,,0.01,Wunderground v.1.15,2013-05-30 01:20:00,
2013-05-29 21:30:00,72.0,67.9,30.00,WSW,247,0.0,3.0,87,0.00,,,-99.99,WeatherLink 6.0.2,2013-05-30 01:30:00,
2013-05-29 21:40:00,71.5,67.4,30.01,WSW,242,0.0,0.0,87,0.00,,,0.01,Wunderground v.1.15,2013-05-30 01:40:00,
2013-05-29 21:50:00,71.0,67.3,30.02,WSW,242,0.0,0.0,88,0.00,,,0.01,Wunderground v.1.15,2013-05-30 01:50:00,
2013-05-29 22:00:00,70.7,67.0,30.03,WSW,242,0.0,0.0,88,0.00,,,0.01,Wunderground v.1.15,2013-05-30 02:00:00,
2013-05-29 22:10:00,70.4,67.0,30.03,WSW,242,0.0,0.0,89,0.00,,,0.01,Wunderground v.1.15,2013-05-30 02:10:00,
2013-05-29 22:20:00,70.1,66.7,30.03,WSW,242,0.0,0.0,89,0.00,,,0.01,Wunderground v.1.15,2013-05-30 02:20:00,
2013-05-29 22:30:00,69.9,66.8,30.03,WSW,247,0.0,4.0,90,0.00,,,-99.99,WeatherLink 6.0.2,2013-05-30 02:30:00,
2013-05-29 22:35:00,69.7,66.6,30.04,WSW,242,0.0,0.0,90,0.00,,,0.01,Wunderground v.1.15,2013-05-30 02:35:00,
2013-05-29 22:40:00,69.7,66.6,30.04,WSW,242,0.0,0.0,90,0.00,,,0.01,Wunderground v.1.15,2013-05-30 02:40:00,
2013-05-29 22:50:00,69.4,66.3,30.04,WSW,242,0.0,0.0,90,0.00,,,0.01,Wunderground v.1.15,2013-05-30 02:50:00,
2013-05-29 23:00:00,69.2,66.1,30.04,WSW,242,0.0,0.0,90,0.00,,,0.01,Wunderground v.1.15,2013-05-30 03:00:00,
2013-05-29 23:10:00,69.0,66.3,30.04,WSW,242,0.0,0.0,91,0.00,,,0.01,Wunderground v.1.15,2013-05-30 03:10:00,
2013-05-29 23:20:00,68.6,65.9,30.05,WSW,242,0.0,0.0,91,0.00,,,0.01,Wunderground v.1.15,2013-05-30 03:20:00,
2013-05-29 23:30:00,68.4,65.7,30.05,WSW,247,0.0,2.0,91,0.00,,,-99.99,WeatherLink 6.0.2,2013-05-30 03:30:00,
2013-05-29 23:40:00,68.1,65.4,30.05,WSW,242,0.0,0.0,91,0.00,,,0.01,Wunderground v.1.15,2013-05-30 03:40:00,
2013-05-29 23:50:00,68.1,65.7,30.05,West,273,0.0,0.0,92,0.00,,,0.01,Wunderground v.1.15,2013-05-30 03:50:00,